createdAt,value
2023-07-07T00:00:21.620Z,56.77
2023-07-07T00:02:48.600Z,56.38
2023-07-07T00:05:15.543Z,56.63
2023-07-07T00:07:43.707Z,56.21
2023-07-07T00:10:10.435Z,56.51
2023-07-07T00:12:39.441Z,56.91
2023-07-07T00:15:07.114Z,57.88
2023-07-07T00:17:33.936Z,58.51
2023-07-07T00:20:09.276Z,58.88
2023-07-07T00:22:36.137Z,59.48
2023-07-07T00:25:05.271Z,58.89
2023-07-07T00:27:32.313Z,58.99
2023-07-07T00:30:01.027Z,58.91
2023-07-07T00:32:27.802Z,59.42
2023-07-07T00:34:55.015Z,59.30
2023-07-07T00:37:21.724Z,59.26
2023-07-07T00:39:48.443Z,59.11
2023-07-07T00:42:17.096Z,58.18
2023-07-07T00:45:02.311Z,59.00
2023-07-07T00:47:29.029Z,59.42
2023-07-07T00:49:56.856Z,59.67
2023-07-07T00:52:24.121Z,59.73
2023-07-07T00:54:51.183Z,60.10
2023-07-07T00:57:19.640Z,60.25
2023-07-07T00:59:47.754Z,59.60
2023-07-07T01:02:26.283Z,60.06
2023-07-07T01:04:55.796Z,60.48
2023-07-07T01:07:25.111Z,60.76
2023-07-07T01:09:52.350Z,61.82
2023-07-07T01:12:20.511Z,62.22
2023-07-07T01:14:48.770Z,62.24
2023-07-07T01:17:22.137Z,62.30
2023-07-07T01:20:10.779Z,61.09
2023-07-07T01:22:58.460Z,61.23
2023-07-07T01:25:29.947Z,62.11
2023-07-07T01:28:12.192Z,62.88
2023-07-07T01:30:46.734Z,63.82
2023-07-07T01:33:15.784Z,63.57
2023-07-07T01:35:42.514Z,63.69
2023-07-07T01:38:24.028Z,63.93
2023-07-07T01:40:53.913Z,63.68
2023-07-07T01:43:27.704Z,63.32
2023-07-07T01:45:58.736Z,63.48
2023-07-07T01:48:31.270Z,64.09
2023-07-07T01:50:59.278Z,64.99
2023-07-07T01:53:27.508Z,64.35
2023-07-07T01:55:56.859Z,64.80
2023-07-07T01:58:25.246Z,64.47
2023-07-07T02:00:52.841Z,65.06
2023-07-07T02:03:21.067Z,64.77
2023-07-07T02:05:48.084Z,64.63
2023-07-07T02:08:15.134Z,64.88
2023-07-07T02:10:41.799Z,64.90
2023-07-07T02:13:08.542Z,64.69
2023-07-07T02:15:35.208Z,64.42
2023-07-07T02:18:02.137Z,62.68
2023-07-07T02:20:30.210Z,62.35
2023-07-07T02:22:57.348Z,63.32
2023-07-07T02:25:24.163Z,62.76
2023-07-07T02:27:50.857Z,62.60
2023-07-07T02:30:18.928Z,62.57
2023-07-07T02:32:45.660Z,62.58
2023-07-07T02:35:13.582Z,63.58
2023-07-07T02:37:41.695Z,64.29
2023-07-07T02:40:10.486Z,65.11
2023-07-07T02:42:38.393Z,66.24
2023-07-07T02:45:07.203Z,65.90
2023-07-07T02:47:33.903Z,65.51
2023-07-07T02:50:00.706Z,65.77
2023-07-07T02:52:28.682Z,66.31
2023-07-07T02:54:56.962Z,66.36
2023-07-07T02:57:23.706Z,66.41
2023-07-07T02:59:50.949Z,65.72
2023-07-07T03:02:17.798Z,66.88
2023-07-07T03:04:46.222Z,66.00
2023-07-07T03:07:12.956Z,65.45
2023-07-07T03:09:39.693Z,65.07
2023-07-07T03:12:08.988Z,65.23
2023-07-07T03:14:35.924Z,64.41
2023-07-07T03:17:06.949Z,63.38
2023-07-07T03:19:41.981Z,64.46
2023-07-07T03:22:15.315Z,65.80
2023-07-07T03:24:52.637Z,66.19
2023-07-07T03:27:30.032Z,66.38
2023-07-07T03:29:57.362Z,66.46
2023-07-07T03:32:24.105Z,67.02
2023-07-07T03:34:59.058Z,66.86
2023-07-07T03:37:26.907Z,66.08
2023-07-07T03:39:53.972Z,65.60
2023-07-07T03:42:20.752Z,65.64
2023-07-07T03:44:49.272Z,65.44
2023-07-07T03:47:16.018Z,64.69
2023-07-07T03:49:44.353Z,65.73
2023-07-07T03:52:11.696Z,66.30
2023-07-07T03:54:39.587Z,66.42
2023-07-07T03:57:06.557Z,66.08
2023-07-07T03:59:34.557Z,66.34
2023-07-07T04:02:03.332Z,65.47
2023-07-07T04:04:30.236Z,66.23
2023-07-07T04:06:57.488Z,66.72
2023-07-07T04:09:24.594Z,67.29
2023-07-07T04:11:51.838Z,67.77
2023-07-07T04:14:18.481Z,68.24
2023-07-07T04:16:48.030Z,68.85
2023-07-07T04:19:16.538Z,68.04
2023-07-07T04:21:43.223Z,67.10
2023-07-07T04:24:09.906Z,66.79
2023-07-07T04:26:39.945Z,67.15
2023-07-07T04:29:07.165Z,67.22
2023-07-07T04:31:33.882Z,66.73
2023-07-07T04:34:00.746Z,67.14
2023-07-07T04:36:28.878Z,66.82
2023-07-07T04:38:55.632Z,65.86
2023-07-07T04:41:23.272Z,65.00
2023-07-07T04:43:51.144Z,63.70
2023-07-07T04:46:19.328Z,62.87
2023-07-07T04:48:46.034Z,62.14
2023-07-07T04:51:13.561Z,61.85
2023-07-07T04:53:42.258Z,61.24
2023-07-07T04:56:11.528Z,60.19
2023-07-07T04:58:39.202Z,58.55
2023-07-07T05:01:07.577Z,57.05
2023-07-07T05:03:34.481Z,56.05
2023-07-07T05:06:04.163Z,55.29
2023-07-07T05:08:31.136Z,54.02
2023-07-07T05:11:00.290Z,53.90
2023-07-07T05:13:27.361Z,54.28
2023-07-07T05:15:59.748Z,53.91
2023-07-07T05:18:26.470Z,53.68
2023-07-07T05:20:53.111Z,53.13
2023-07-07T05:23:19.794Z,54.39
2023-07-07T05:25:46.625Z,52.10
2023-07-07T05:28:15.202Z,50.15
2023-07-07T05:30:42.126Z,48.89
2023-07-07T05:33:09.395Z,48.97
2023-07-07T05:35:36.213Z,48.46
2023-07-07T05:38:03.650Z,44.77
2023-07-07T05:40:31.016Z,43.27
2023-07-07T05:42:57.826Z,44.81
2023-07-07T05:45:25.898Z,41.91
2023-07-07T05:47:52.617Z,41.81
2023-07-07T05:50:19.360Z,40.58
2023-07-07T05:52:46.070Z,39.81
2023-07-07T05:55:22.646Z,38.47
2023-07-07T05:57:49.286Z,38.15
2023-07-07T06:00:17.722Z,38.50
2023-07-07T06:02:45.819Z,36.29
2023-07-07T06:05:12.610Z,37.56
2023-07-07T06:07:39.282Z,37.58
2023-07-07T06:10:06.694Z,36.42
2023-07-07T06:12:36.801Z,38.51
2023-07-07T06:15:03.900Z,35.89
2023-07-07T06:17:30.693Z,37.07
2023-07-07T06:19:58.784Z,35.71
2023-07-07T06:22:25.529Z,35.31
2023-07-07T06:24:52.737Z,36.16
2023-07-07T06:27:19.553Z,35.76
2023-07-07T06:29:46.495Z,36.95
2023-07-07T06:32:13.264Z,35.55
2023-07-07T06:34:40.224Z,35.24
2023-07-07T06:37:08.385Z,35.84
2023-07-07T06:39:35.136Z,35.63
2023-07-07T06:42:02.773Z,36.31
2023-07-07T06:44:34.841Z,36.78
2023-07-07T06:47:01.721Z,37.24
2023-07-07T06:49:28.364Z,37.33
2023-07-07T06:51:55.069Z,35.21
2023-07-07T06:54:23.069Z,36.00
2023-07-07T06:56:49.774Z,34.49
2023-07-07T06:59:16.501Z,34.86
2023-07-07T07:01:43.404Z,34.53
2023-07-07T07:04:10.303Z,34.27
2023-07-07T07:06:37.077Z,33.56
2023-07-07T07:09:03.892Z,33.45
2023-07-07T07:11:31.998Z,34.16
2023-07-07T07:13:58.720Z,32.86
2023-07-07T07:16:25.634Z,33.34
2023-07-07T07:18:52.353Z,32.92
2023-07-07T07:21:19.073Z,33.75
2023-07-07T07:23:46.125Z,33.03
2023-07-07T07:26:13.245Z,33.69
2023-07-07T07:28:41.312Z,34.84
2023-07-07T07:31:08.050Z,36.29
2023-07-07T07:33:34.776Z,34.56
2023-07-07T07:36:01.569Z,33.89
2023-07-07T07:38:31.122Z,33.27
2023-07-07T07:40:58.130Z,33.93
2023-07-07T07:43:25.143Z,33.25
2023-07-07T07:45:55.026Z,32.95
2023-07-07T07:48:21.755Z,32.16
2023-07-07T07:50:48.489Z,33.51
2023-07-07T07:53:15.256Z,33.58
2023-07-07T07:55:41.914Z,32.89
2023-07-07T07:58:08.705Z,32.14
2023-07-07T08:00:35.387Z,33.17
2023-07-07T08:03:03.877Z,31.46
2023-07-07T08:05:31.807Z,32.06
2023-07-07T08:07:58.644Z,30.95
2023-07-07T08:10:25.369Z,29.95
2023-07-07T08:12:52.354Z,29.80
2023-07-07T08:15:19.018Z,32.20
2023-07-07T08:17:45.793Z,29.94
2023-07-07T08:20:17.385Z,29.34
2023-07-07T08:22:44.121Z,28.78
2023-07-07T08:25:11.224Z,28.27
2023-07-07T08:27:39.187Z,28.58
2023-07-07T08:30:06.871Z,28.72
2023-07-07T08:32:34.033Z,27.41
2023-07-07T08:35:00.789Z,29.10
2023-07-07T08:37:29.134Z,27.88
2023-07-07T08:39:56.266Z,27.96
2023-07-07T08:42:28.134Z,26.98
2023-07-07T08:44:56.443Z,27.79
2023-07-07T08:47:39.735Z,28.56
2023-07-07T08:50:23.636Z,29.11
2023-07-07T08:53:00.093Z,27.35
2023-07-07T08:55:33.299Z,26.79
2023-07-07T09:00:35.431Z,27.02
2023-07-07T09:03:12.618Z,26.45
2023-07-07T09:05:45.494Z,26.13
2023-07-07T09:08:20.193Z,26.23
2023-07-07T09:10:51.712Z,25.77
2023-07-07T09:13:21.946Z,25.54
2023-07-07T09:15:57.944Z,25.52
2023-07-07T09:18:29.872Z,26.15
2023-07-07T09:20:58.915Z,25.17
2023-07-07T09:23:29.939Z,24.54
2023-07-07T09:25:58.907Z,25.17
2023-07-07T09:28:28.509Z,25.32
2023-07-07T09:30:58.726Z,25.11
2023-07-07T09:33:26.216Z,26.58
2023-07-07T09:36:01.205Z,25.11
2023-07-07T09:38:34.392Z,24.00
2023-07-07T09:41:10.043Z,23.83
2023-07-07T09:43:53.728Z,24.35
2023-07-07T09:46:23.240Z,23.78
2023-07-07T09:48:52.096Z,24.34
2023-07-07T09:51:23.072Z,23.95
2023-07-07T09:53:51.280Z,23.70
2023-07-07T09:56:21.304Z,23.17
2023-07-07T09:58:52.110Z,22.56
2023-07-07T10:01:20.206Z,23.60
2023-07-07T10:03:47.858Z,23.31
2023-07-07T10:06:19.867Z,24.21
2023-07-07T10:08:46.632Z,23.34
2023-07-07T10:13:47.629Z,23.45
2023-07-07T10:16:18.544Z,22.36
2023-07-07T10:18:53.674Z,22.92
2023-07-07T10:21:21.011Z,22.68
2023-07-07T10:23:47.660Z,21.75
2023-07-07T10:26:16.107Z,22.49
2023-07-07T10:28:43.184Z,21.61
2023-07-07T10:31:09.990Z,23.26
2023-07-07T10:33:37.472Z,22.79
2023-07-07T10:36:17.212Z,23.15
2023-07-07T10:38:56.203Z,22.48
2023-07-07T10:41:25.253Z,23.09
2023-07-07T10:43:51.925Z,23.83
2023-07-07T10:46:18.958Z,23.76
2023-07-07T10:48:46.163Z,22.71
2023-07-07T10:51:17.494Z,22.99
2023-07-07T10:53:50.799Z,23.48
2023-07-07T10:56:25.321Z,22.30
2023-07-07T10:59:03.618Z,22.19
2023-07-07T11:01:35.308Z,23.44
2023-07-07T11:04:10.118Z,21.72
2023-07-07T11:06:42.009Z,21.18
2023-07-07T11:09:16.477Z,21.56
2023-07-07T11:11:46.883Z,21.78
2023-07-07T11:14:31.401Z,22.38
2023-07-07T11:17:05.731Z,20.87
2023-07-07T11:19:43.770Z,20.90
2023-07-07T11:22:15.006Z,21.05
2023-07-07T11:27:22.702Z,21.23
2023-07-07T11:29:57.292Z,21.67
2023-07-07T11:32:28.483Z,21.86
2023-07-07T11:35:05.590Z,20.37
2023-07-07T11:37:40.474Z,22.25
2023-07-07T11:40:15.277Z,20.97
2023-07-07T11:42:53.463Z,21.31
2023-07-07T11:45:29.793Z,21.91
2023-07-07T11:48:02.936Z,21.81
2023-07-07T11:50:35.773Z,22.10
2023-07-07T11:53:15.685Z,21.56
2023-07-07T11:55:53.101Z,21.14
2023-07-07T11:58:25.534Z,21.39
2023-07-07T12:00:58.750Z,21.17
2023-07-07T12:03:35.136Z,21.29
2023-07-07T12:06:04.598Z,20.64
2023-07-07T12:08:37.027Z,20.99
2023-07-07T12:11:05.331Z,21.11
2023-07-07T12:13:34.952Z,22.22
2023-07-07T12:16:06.477Z,21.20
2023-07-07T12:18:34.383Z,21.58
2023-07-07T12:21:04.727Z,21.61
2023-07-07T12:23:33.670Z,21.29
2023-07-07T12:26:05.171Z,21.92
2023-07-07T12:28:32.119Z,21.17
2023-07-07T12:30:59.222Z,21.24
2023-07-07T12:33:27.347Z,21.77
2023-07-07T12:35:58.048Z,20.44
2023-07-07T12:38:27.881Z,20.02
2023-07-07T12:40:56.680Z,21.98
2023-07-07T12:43:25.249Z,20.51
2023-07-07T12:45:52.217Z,20.76
2023-07-07T12:48:20.306Z,19.58
2023-07-07T12:50:49.506Z,20.14
2023-07-07T12:53:22.425Z,20.41
2023-07-07T12:56:00.012Z,20.21
2023-07-07T12:58:40.572Z,20.68
2023-07-07T13:01:10.435Z,20.69
2023-07-07T13:03:43.968Z,19.82
2023-07-07T13:06:26.131Z,21.02
2023-07-07T13:09:03.481Z,21.67
2023-07-07T13:11:33.089Z,22.04
2023-07-07T13:14:00.243Z,22.10
2023-07-07T13:16:29.596Z,21.62
2023-07-07T13:18:56.522Z,22.29
2023-07-07T13:21:24.671Z,22.17
2023-07-07T13:23:53.227Z,22.61
2023-07-07T13:26:24.214Z,22.84
2023-07-07T13:28:50.869Z,21.93
2023-07-07T13:31:17.709Z,23.40
2023-07-07T13:33:44.624Z,22.18
2023-07-07T13:36:11.871Z,22.60
2023-07-07T13:38:41.213Z,22.61
2023-07-07T13:41:12.946Z,22.54
2023-07-07T13:43:43.556Z,21.20
2023-07-07T13:46:14.223Z,21.78
2023-07-07T13:48:43.008Z,20.63
2023-07-07T13:51:13.469Z,20.64
2023-07-07T13:53:40.222Z,20.60
2023-07-07T13:56:07.270Z,21.04
2023-07-07T13:58:40.535Z,21.07
2023-07-07T14:01:20.732Z,22.28
2023-07-07T14:03:48.686Z,21.13
2023-07-07T14:06:16.414Z,20.92
2023-07-07T14:08:43.306Z,21.10
2023-07-07T14:11:17.321Z,21.50
2023-07-07T14:13:51.179Z,20.88
2023-07-07T14:16:20.636Z,21.28
2023-07-07T14:18:59.226Z,20.89
2023-07-07T14:21:26.765Z,21.12
2023-07-07T14:23:53.537Z,21.85
2023-07-07T14:26:21.181Z,21.13
2023-07-07T14:28:49.369Z,21.77
2023-07-07T14:31:16.347Z,21.33
2023-07-07T14:33:44.976Z,21.81
2023-07-07T14:36:16.862Z,20.63
2023-07-07T14:38:47.013Z,20.70
2023-07-07T14:41:17.134Z,20.91
2023-07-07T14:43:44.055Z,21.67
2023-07-07T14:46:16.586Z,21.52
2023-07-07T14:48:46.896Z,22.07
2023-07-07T14:51:15.857Z,22.00
2023-07-07T14:53:42.603Z,21.88
2023-07-07T14:56:14.074Z,22.27
2023-07-07T14:58:41.227Z,22.71
2023-07-07T15:01:08.098Z,23.68
2023-07-07T15:03:39.806Z,23.43
2023-07-07T15:06:30.318Z,22.75
2023-07-07T15:08:57.495Z,23.06
2023-07-07T15:11:25.984Z,23.35
2023-07-07T15:13:53.616Z,22.57
2023-07-07T15:16:23.631Z,22.71
2023-07-07T15:18:51.923Z,23.49
2023-07-07T15:21:19.839Z,22.73
2023-07-07T15:23:46.598Z,22.66
2023-07-07T15:26:17.131Z,23.52
2023-07-07T15:28:43.823Z,25.04
2023-07-07T15:31:15.911Z,24.83
2023-07-07T15:33:42.872Z,23.72
2023-07-07T15:36:11.255Z,24.11
2023-07-07T15:38:49.570Z,23.20
2023-07-07T15:41:17.304Z,23.67
2023-07-07T15:43:43.989Z,23.46
2023-07-07T15:46:11.920Z,23.45
2023-07-07T15:48:39.067Z,23.93
2023-07-07T15:51:05.969Z,23.50
2023-07-07T15:53:37.121Z,23.31
2023-07-07T15:56:04.014Z,22.82
2023-07-07T15:58:30.770Z,22.77
2023-07-07T16:00:57.541Z,22.79
2023-07-07T16:03:24.319Z,23.11
2023-07-07T16:05:51.246Z,22.86
2023-07-07T16:08:18.056Z,22.64
2023-07-07T16:10:46.324Z,22.89
2023-07-07T16:13:13.079Z,22.89
2023-07-07T16:15:39.770Z,22.33
2023-07-07T16:18:08.748Z,22.47
2023-07-07T16:20:36.843Z,22.65
2023-07-07T16:23:03.704Z,22.33
2023-07-07T16:25:30.552Z,22.85
2023-07-07T16:27:58.671Z,22.82
2023-07-07T16:30:30.342Z,23.11
2023-07-07T16:32:57.109Z,22.43
2023-07-07T16:35:24.035Z,22.36
2023-07-07T16:37:50.839Z,22.49
2023-07-07T16:40:22.128Z,22.73
2023-07-07T16:42:49.192Z,22.84
2023-07-07T16:45:17.461Z,23.40
2023-07-07T16:47:44.641Z,22.88
2023-07-07T16:50:22.886Z,22.91
2023-07-07T16:52:50.229Z,24.01
2023-07-07T16:55:17.389Z,22.51
2023-07-07T16:57:44.595Z,23.17
2023-07-07T17:00:14.566Z,23.83
2023-07-07T17:02:42.778Z,23.39
2023-07-07T17:05:11.953Z,24.43
2023-07-07T17:07:38.661Z,24.09
2023-07-07T17:10:15.416Z,23.73
2023-07-07T17:12:42.125Z,22.83
2023-07-07T17:15:09.130Z,23.11
2023-07-07T17:17:36.327Z,23.10
2023-07-07T17:20:10.377Z,23.62
2023-07-07T17:22:37.049Z,24.05
2023-07-07T17:25:04.012Z,24.43
2023-07-07T17:27:30.667Z,24.23
2023-07-07T17:29:57.368Z,24.60
2023-07-07T17:32:24.042Z,23.97
2023-07-07T17:34:50.754Z,24.20
2023-07-07T17:37:18.831Z,24.51
2023-07-07T17:39:45.583Z,23.86
2023-07-07T17:42:12.255Z,24.68
2023-07-07T17:44:39.197Z,24.32
2023-07-07T17:47:09.013Z,24.63
2023-07-07T17:49:35.652Z,24.48
2023-07-07T17:52:03.345Z,24.72
2023-07-07T17:54:32.058Z,24.26
2023-07-07T17:56:58.778Z,24.43
2023-07-07T17:59:25.620Z,24.85
2023-07-07T18:01:53.156Z,25.06
2023-07-07T18:04:19.931Z,25.78
2023-07-07T18:06:47.902Z,25.49
2023-07-07T18:09:15.635Z,25.43
2023-07-07T18:11:43.760Z,25.20
2023-07-07T18:14:10.526Z,25.67
2023-07-07T18:16:40.754Z,26.61
2023-07-07T18:19:45.104Z,28.28
2023-07-07T18:22:00.443Z,27.43
2023-07-07T18:24:29.388Z,27.42
2023-07-07T18:26:57.480Z,27.33
2023-07-07T18:29:24.762Z,28.38
2023-07-07T18:31:51.611Z,27.80
2023-07-07T18:34:18.426Z,27.71
2023-07-07T18:36:48.241Z,28.16
2023-07-07T18:39:20.432Z,28.36
2023-07-07T18:41:47.219Z,28.64
2023-07-07T18:44:15.358Z,28.83
2023-07-07T18:46:43.020Z,29.20
2023-07-07T18:49:10.874Z,29.34
2023-07-07T18:51:42.582Z,29.48
2023-07-07T18:54:09.618Z,29.79
2023-07-07T18:56:36.668Z,29.69
2023-07-07T18:59:05.881Z,29.63
2023-07-07T19:01:35.977Z,30.23
2023-07-07T19:04:02.891Z,30.28
2023-07-07T19:06:30.528Z,30.23
2023-07-07T19:08:57.720Z,30.18
2023-07-07T19:11:24.423Z,30.59
2023-07-07T19:13:51.372Z,30.65
2023-07-07T19:16:19.664Z,31.06
2023-07-07T19:18:49.736Z,30.96
2023-07-07T19:21:23.905Z,31.28
2023-07-07T19:23:52.441Z,31.20
2023-07-07T19:26:20.471Z,31.71
2023-07-07T19:28:47.673Z,31.53
2023-07-07T19:31:15.330Z,31.82
2023-07-07T19:33:42.773Z,31.85
2023-07-07T19:36:14.593Z,32.22
2023-07-07T19:38:41.516Z,32.43
2023-07-07T19:41:11.547Z,32.63
2023-07-07T19:43:38.264Z,33.21
2023-07-07T19:46:13.583Z,33.36
2023-07-07T19:48:40.260Z,33.67
2023-07-07T19:51:07.190Z,33.53
2023-07-07T19:53:36.112Z,33.73
2023-07-07T19:56:02.839Z,33.62
2023-07-07T19:58:30.160Z,33.60
2023-07-07T20:00:56.908Z,34.14
2023-07-07T20:03:23.955Z,34.01
2023-07-07T20:05:50.672Z,34.47
2023-07-07T20:08:17.546Z,34.42
2023-07-07T20:10:45.689Z,34.92
2023-07-07T20:13:12.738Z,35.40
2023-07-07T20:15:43.199Z,35.59
2023-07-07T20:18:13.222Z,35.02
2023-07-07T20:20:40.075Z,35.65
2023-07-07T20:23:08.622Z,36.46
2023-07-07T20:25:35.399Z,36.72
2023-07-07T20:28:03.644Z,37.45
2023-07-07T20:30:30.927Z,37.99
2023-07-07T20:32:57.707Z,38.35
2023-07-07T20:35:24.475Z,38.52
2023-07-07T20:37:52.881Z,38.68
2023-07-07T20:40:20.929Z,38.62
2023-07-07T20:42:47.716Z,38.12
2023-07-07T20:45:15.897Z,38.82
2023-07-07T20:47:42.581Z,39.23
2023-07-07T20:50:16.472Z,39.32
2023-07-07T20:52:43.154Z,39.44
2023-07-07T20:55:10.412Z,39.61
2023-07-07T20:57:38.928Z,39.47
2023-07-07T21:00:11.521Z,39.28
2023-07-07T21:02:39.604Z,39.69
2023-07-07T21:05:06.315Z,40.03
2023-07-07T21:07:33.033Z,39.81
2023-07-07T21:10:01.331Z,40.36
2023-07-07T21:12:28.284Z,40.17
2023-07-07T21:14:54.929Z,40.77
2023-07-07T21:17:21.818Z,39.90
2023-07-07T21:19:49.936Z,40.38
2023-07-07T21:22:16.620Z,40.99
2023-07-07T21:24:43.301Z,40.66
2023-07-07T21:27:10.417Z,40.66
2023-07-07T21:29:39.096Z,41.51
2023-07-07T21:32:09.081Z,41.00
2023-07-07T21:34:35.785Z,41.37
2023-07-07T21:37:03.924Z,41.85
2023-07-07T21:39:32.388Z,41.57
2023-07-07T21:44:30.048Z,42.81
2023-07-07T21:46:56.770Z,42.80
2023-07-07T21:49:23.503Z,43.43
2023-07-07T21:51:50.149Z,44.07
2023-07-07T21:54:18.373Z,44.64
2023-07-07T21:56:44.986Z,45.59
2023-07-07T21:59:17.417Z,46.04
2023-07-07T22:01:45.499Z,46.75
2023-07-07T22:04:13.388Z,46.63
2023-07-07T22:06:40.292Z,46.41
2023-07-07T22:09:10.082Z,46.87
2023-07-07T22:11:38.305Z,46.80
2023-07-07T22:14:05.343Z,47.00
2023-07-07T22:16:32.077Z,47.49
2023-07-07T22:18:58.845Z,48.26
2023-07-07T22:21:25.600Z,48.93
2023-07-07T22:23:52.380Z,49.37
2023-07-07T22:26:20.369Z,50.38
2023-07-07T22:28:48.641Z,50.45
2023-07-07T22:31:16.163Z,50.76
2023-07-07T22:33:43.045Z,50.93
2023-07-07T22:36:12.590Z,51.01
2023-07-07T22:38:39.302Z,50.86
2023-07-07T22:41:06.018Z,50.97
2023-07-07T22:43:32.908Z,51.15
2023-07-07T22:46:02.182Z,51.46
2023-07-07T22:48:30.477Z,51.46
2023-07-07T22:50:59.414Z,51.71
2023-07-07T22:53:26.243Z,51.95
2023-07-07T22:55:53.519Z,51.62
2023-07-07T22:58:21.153Z,51.46
2023-07-07T23:00:48.526Z,51.96
2023-07-07T23:06:09.414Z,52.07
2023-07-07T23:08:36.586Z,53.57
2023-07-07T23:11:03.290Z,54.52
2023-07-07T23:13:30.101Z,54.38
2023-07-07T23:15:56.951Z,55.19
2023-07-07T23:18:24.988Z,55.41
2023-07-07T23:20:51.655Z,56.06
2023-07-07T23:23:23.029Z,56.52
2023-07-07T23:25:58.103Z,57.30
2023-07-07T23:28:28.160Z,56.97
2023-07-07T23:31:05.179Z,57.62
2023-07-07T23:33:34.357Z,56.90
2023-07-07T23:36:02.087Z,56.86
2023-07-07T23:38:28.797Z,57.77
2023-07-07T23:40:55.483Z,57.52
2023-07-07T23:43:22.144Z,57.53
2023-07-07T23:45:49.377Z,57.69
2023-07-07T23:48:17.078Z,58.05
2023-07-07T23:50:48.682Z,57.99
2023-07-07T23:53:15.939Z,57.72
2023-07-07T23:55:42.771Z,57.69
2023-07-07T23:58:10.351Z,58.06
